SWA2165 KABQ-KDAL
Flight info
| Callsign | SWA2165 |
|---|---|
| Flight time | N/A |
| Altitude | 37000 |
| Route | DOOKK3 TXO TURKI JFRYE5 |
| Aircraft | B738/M-SDE2E3FGHIRWXY/LB1 |
Departure
| Time | 2026-05-06 03:42 |
|---|---|
| Airport | Albuquerque International Sunport (KABQ) |
Arrival
| Time | N/A |
|---|---|
| Airport | Dallas Love Field (KDAL) |
| Time | Latitude | Longitude | Altitude | Speed | Heading |
|---|---|---|---|---|---|
| 2026-05-06 03:24 | 35.04676 | -106.61543 | 5330 ft | 0 kts | 11° |
| 2026-05-06 03:32 | 35.04664 | -106.61534 | 5336 ft | 2 kts | 4° |
| 2026-05-06 03:32 | 35.04648 | -106.61536 | 5334 ft | 2 kts | 8° |
| 2026-05-06 03:33 | 35.04631 | -106.61539 | 5333 ft | 2 kts | 10° |
| 2026-05-06 03:33 | 35.04615 | -106.61543 | 5333 ft | 2 kts | 12° |
| 2026-05-06 03:33 | 35.04599 | -106.61548 | 5320 ft | 2 kts | 15° |
| 2026-05-06 03:33 | 35.04584 | -106.61554 | 5318 ft | 2 kts | 19° |
| 2026-05-06 03:34 | 35.04568 | -106.61561 | 5325 ft | 2 kts | 28° |
| 2026-05-06 03:34 | 35.04557 | -106.61570 | 5318 ft | 1 kts | 55° |
| 2026-05-06 03:34 | 35.04555 | -106.61572 | 5319 ft | 0 kts | 70° |
| 2026-05-06 03:34 | 35.04556 | -106.61569 | 5317 ft | 2 kts | 71° |
| 2026-05-06 03:35 | 35.04568 | -106.61511 | 5322 ft | 11 kts | 76° |
| 2026-05-06 03:35 | 35.04583 | -106.61389 | 5329 ft | 18 kts | 88° |
| 2026-05-06 03:35 | 35.04582 | -106.61212 | 5334 ft | 25 kts | 91° |
| 2026-05-06 03:35 | 35.04580 | -106.60963 | 5333 ft | 33 kts | 90° |
| 2026-05-06 03:36 | 35.04580 | -106.60658 | 5332 ft | 39 kts | 90° |
| 2026-05-06 03:36 | 35.04579 | -106.60306 | 5335 ft | 44 kts | 90° |
| 2026-05-06 03:36 | 35.04576 | -106.59917 | 5336 ft | 48 kts | 87° |
| 2026-05-06 03:36 | 35.04586 | -106.59503 | 5342 ft | 50 kts | 88° |
| 2026-05-06 03:37 | 35.04580 | -106.59067 | 5348 ft | 53 kts | 90° |
| 2026-05-06 03:37 | 35.04579 | -106.58612 | 5350 ft | 55 kts | 91° |
| 2026-05-06 03:37 | 35.04581 | -106.58141 | 5357 ft | 56 kts | 89° |
| 2026-05-06 03:37 | 35.04575 | -106.57787 | 5362 ft | 22 kts | 90° |
| 2026-05-06 03:38 | 35.04571 | -106.57640 | 5362 ft | 9 kts | 104° |
| 2026-05-06 03:38 | 35.04530 | -106.57582 | 5361 ft | 10 kts | 153° |
| 2026-05-06 03:38 | 35.04527 | -106.57581 | 5359 ft | 0 kts | 158° |
| 2026-05-06 03:40 | 35.04521 | -106.57578 | 5359 ft | 5 kts | 162° |
| 2026-05-06 03:40 | 35.04475 | -106.57574 | 5360 ft | 7 kts | 189° |
| 2026-05-06 03:40 | 35.04431 | -106.57599 | 5360 ft | 7 kts | 213° |
| 2026-05-06 03:41 | 35.04397 | -106.57652 | 5359 ft | 8 kts | 250° |
| 2026-05-06 03:41 | 35.04403 | -106.57728 | 5358 ft | 17 kts | 280° |
| 2026-05-06 03:41 | 35.04412 | -106.58219 | 5357 ft | 98 kts | 270° |
| 2026-05-06 03:41 | 35.04417 | -106.59357 | 5352 ft | 167 kts | 273° |
| 2026-05-06 03:42 | 35.04317 | -106.60790 | 6214 ft | 170 kts | 266° |
| 2026-05-06 03:42 | 35.04221 | -106.62173 | 7171 ft | 165 kts | 265° |
| 2026-05-06 03:42 | 35.03755 | -106.63544 | 7673 ft | 193 kts | 229° |
| 2026-05-06 03:42 | 35.02632 | -106.64653 | 7931 ft | 222 kts | 220° |
| 2026-05-06 03:43 | 35.01316 | -106.65883 | 8141 ft | 254 kts | 220° |
| 2026-05-06 03:43 | 34.99848 | -106.67250 | 8692 ft | 269 kts | 220° |
| 2026-05-06 03:43 | 34.98344 | -106.68649 | 8970 ft | 273 kts | 220° |
| 2026-05-06 03:43 | 34.96838 | -106.70049 | 8981 ft | 272 kts | 220° |
| 2026-05-06 03:44 | 34.95271 | -106.71374 | 8969 ft | 278 kts | 208° |
| 2026-05-06 03:44 | 34.93383 | -106.71900 | 8973 ft | 285 kts | 183° |
| 2026-05-06 03:44 | 34.91448 | -106.71357 | 9164 ft | 297 kts | 157° |
| 2026-05-06 03:44 | 34.89757 | -106.69840 | 9825 ft | 308 kts | 139° |
| 2026-05-06 03:45 | 34.88259 | -106.67934 | 9929 ft | 312 kts | 136° |
| 2026-05-06 03:45 | 34.86801 | -106.65993 | 9927 ft | 308 kts | 136° |
| 2026-05-06 03:45 | 34.85339 | -106.64079 | 9985 ft | 312 kts | 136° |
| 2026-05-06 03:45 | 34.83794 | -106.62095 | 10327 ft | 331 kts | 136° |
| 2026-05-06 03:46 | 34.82430 | -106.59786 | 11072 ft | 343 kts | 117° |
| 2026-05-06 03:46 | 34.81775 | -106.56980 | 11983 ft | 349 kts | 104° |
| 2026-05-06 03:46 | 34.81331 | -106.54055 | 12826 ft | 354 kts | 103° |
| 2026-05-06 03:46 | 34.80901 | -106.51080 | 13650 ft | 359 kts | 103° |
| 2026-05-06 03:47 | 34.80504 | -106.48055 | 14386 ft | 365 kts | 103° |
| 2026-05-06 03:47 | 34.80117 | -106.45022 | 15114 ft | 370 kts | 103° |
| 2026-05-06 03:47 | 34.79717 | -106.41903 | 15864 ft | 376 kts | 103° |
| 2026-05-06 03:47 | 34.79307 | -106.38745 | 16603 ft | 380 kts | 103° |
| 2026-05-06 03:48 | 34.78887 | -106.35550 | 17296 ft | 386 kts | 104° |
| 2026-05-06 03:48 | 34.78458 | -106.32304 | 17978 ft | 391 kts | 104° |
| 2026-05-06 03:48 | 34.78020 | -106.29016 | 18582 ft | 396 kts | 104° |
| 2026-05-06 03:48 | 34.77572 | -106.25679 | 19125 ft | 403 kts | 104° |
| 2026-05-06 03:49 | 34.77116 | -106.22284 | 19678 ft | 410 kts | 104° |
| 2026-05-06 03:49 | 34.76654 | -106.18836 | 20250 ft | 416 kts | 104° |
| 2026-05-06 03:49 | 34.76183 | -106.15338 | 20796 ft | 422 kts | 104° |
| 2026-05-06 03:49 | 34.75707 | -106.11786 | 21330 ft | 429 kts | 103° |
| 2026-05-06 03:50 | 34.75399 | -106.08140 | 21854 ft | 438 kts | 98° |
| 2026-05-06 03:50 | 34.75261 | -106.04396 | 22371 ft | 446 kts | 96° |
| 2026-05-06 03:50 | 34.75190 | -106.00597 | 22877 ft | 453 kts | 95° |
| 2026-05-06 03:50 | 34.75131 | -105.96744 | 23372 ft | 459 kts | 96° |
| 2026-05-06 03:51 | 34.75058 | -105.92840 | 23792 ft | 464 kts | 96° |
| 2026-05-06 03:51 | 34.74966 | -105.88888 | 24222 ft | 469 kts | 97° |
| 2026-05-06 03:51 | 34.74855 | -105.84902 | 24645 ft | 474 kts | 97° |
| 2026-05-06 03:51 | 34.74730 | -105.80871 | 25051 ft | 479 kts | 98° |
| 2026-05-06 03:52 | 34.74597 | -105.76854 | 25451 ft | 484 kts | 98° |
| 2026-05-06 03:52 | 34.74458 | -105.72739 | 25863 ft | 489 kts | 98° |
| 2026-05-06 03:52 | 34.74315 | -105.68588 | 26254 ft | 493 kts | 98° |
| 2026-05-06 03:52 | 34.74170 | -105.64402 | 26653 ft | 497 kts | 98° |
| 2026-05-06 03:53 | 34.74024 | -105.60183 | 27039 ft | 502 kts | 99° |
| 2026-05-06 03:53 | 34.73875 | -105.55930 | 27419 ft | 506 kts | 99° |
| 2026-05-06 03:53 | 34.73725 | -105.51644 | 27816 ft | 509 kts | 99° |
| 2026-05-06 03:53 | 34.73572 | -105.47322 | 28189 ft | 513 kts | 99° |
| 2026-05-06 03:54 | 34.73416 | -105.42971 | 28571 ft | 517 kts | 99° |
| 2026-05-06 03:54 | 34.73258 | -105.38594 | 28934 ft | 520 kts | 99° |
| 2026-05-06 03:54 | 34.73097 | -105.34182 | 29307 ft | 523 kts | 99° |
| 2026-05-06 03:54 | 34.72934 | -105.29755 | 29658 ft | 526 kts | 99° |
| 2026-05-06 03:55 | 34.72768 | -105.25295 | 29981 ft | 530 kts | 99° |
| 2026-05-06 03:55 | 34.72600 | -105.20816 | 30300 ft | 532 kts | 99° |
| 2026-05-06 03:55 | 34.72429 | -105.16320 | 30629 ft | 533 kts | 99° |
| 2026-05-06 03:55 | 34.72259 | -105.11869 | 30938 ft | 535 kts | 100° |
| 2026-05-06 03:56 | 34.72085 | -105.07340 | 31234 ft | 537 kts | 100° |
| 2026-05-06 03:56 | 34.71907 | -105.02789 | 31520 ft | 539 kts | 100° |
| 2026-05-06 03:56 | 34.71726 | -104.98221 | 31797 ft | 541 kts | 100° |
| 2026-05-06 03:56 | 34.71544 | -104.93634 | 32092 ft | 543 kts | 100° |
| 2026-05-06 03:57 | 34.71421 | -104.90589 | 32290 ft | 545 kts | 100° |
| 2026-05-06 03:57 | 34.71235 | -104.85985 | 32598 ft | 546 kts | 100° |
| 2026-05-06 03:57 | 34.70987 | -104.79881 | 33097 ft | 545 kts | 100° |
| 2026-05-06 03:57 | 34.70798 | -104.75280 | 33493 ft | 544 kts | 101° |
| 2026-05-06 03:58 | 34.70607 | -104.70684 | 33844 ft | 544 kts | 101° |
| 2026-05-06 03:58 | 34.70476 | -104.67578 | 34029 ft | 545 kts | 101° |
| 2026-05-06 03:58 | 34.70282 | -104.63042 | 34271 ft | 545 kts | 101° |
| 2026-05-06 03:58 | 34.69964 | -104.58409 | 34515 ft | 542 kts | 105° |
| 2026-05-06 03:59 | 34.69502 | -104.53871 | 34777 ft | 539 kts | 107° |
| 2026-05-06 03:59 | 34.68969 | -104.49367 | 35032 ft | 538 kts | 108° |
| 2026-05-06 03:59 | 34.68420 | -104.44924 | 35251 ft | 539 kts | 108° |
| 2026-05-06 03:59 | 34.67867 | -104.40412 | 35475 ft | 540 kts | 108° |
| 2026-05-06 04:00 | 34.67330 | -104.35895 | 35711 ft | 541 kts | 108° |
| 2026-05-06 04:00 | 34.66810 | -104.31367 | 35976 ft | 541 kts | 107° |
| 2026-05-06 04:00 | 34.66299 | -104.26831 | 36227 ft | 542 kts | 107° |
| 2026-05-06 04:00 | 34.65794 | -104.22299 | 36458 ft | 542 kts | 108° |
| 2026-05-06 04:01 | 34.65288 | -104.17749 | 36685 ft | 543 kts | 108° |
| 2026-05-06 04:01 | 34.64774 | -104.13177 | 36688 ft | 548 kts | 108° |
| 2026-05-06 04:01 | 34.63735 | -104.03973 | 36698 ft | 549 kts | 108° |
| 2026-05-06 04:02 | 34.62704 | -103.94853 | 36691 ft | 542 kts | 108° |
| 2026-05-06 04:02 | 34.61671 | -103.85847 | 36707 ft | 542 kts | 108° |
| 2026-05-06 04:03 | 34.60618 | -103.76779 | 36717 ft | 544 kts | 108° |
| 2026-05-06 04:03 | 34.59548 | -103.67632 | 36739 ft | 550 kts | 108° |
| 2026-05-06 04:04 | 34.58468 | -103.58407 | 36782 ft | 554 kts | 108° |
| 2026-05-06 04:04 | 34.57376 | -103.49123 | 36845 ft | 556 kts | 108° |
| 2026-05-06 04:05 | 34.56279 | -103.39851 | 36873 ft | 555 kts | 108° |
| 2026-05-06 04:05 | 34.55174 | -103.30579 | 36890 ft | 554 kts | 108° |
| 2026-05-06 04:06 | 34.54064 | -103.21342 | 36921 ft | 552 kts | 108° |
| 2026-05-06 04:06 | 34.52957 | -103.12199 | 36948 ft | 551 kts | 108° |
| 2026-05-06 04:07 | 34.51839 | -103.03024 | 36948 ft | 549 kts | 107° |
| 2026-05-06 04:07 | 34.50718 | -102.93874 | 36944 ft | 548 kts | 107° |
| 2026-05-06 04:08 | 34.49591 | -102.84729 | 36913 ft | 547 kts | 107° |
| 2026-05-06 04:08 | 34.48567 | -102.75577 | 36889 ft | 549 kts | 105° |
| 2026-05-06 04:09 | 34.47656 | -102.66371 | 36872 ft | 550 kts | 105° |
| 2026-05-06 04:09 | 34.46737 | -102.57161 | 36855 ft | 550 kts | 105° |
| 2026-05-06 04:10 | 34.45794 | -102.48022 | 36853 ft | 551 kts | 105° |
| 2026-05-06 04:10 | 34.44823 | -102.38797 | 36862 ft | 552 kts | 105° |
| 2026-05-06 04:11 | 34.43843 | -102.29561 | 36857 ft | 553 kts | 105° |
| 2026-05-06 04:11 | 34.42857 | -102.20307 | 36859 ft | 553 kts | 105° |
| 2026-05-06 04:12 | 34.41864 | -102.11048 | 36852 ft | 554 kts | 105° |
| 2026-05-06 04:12 | 34.40863 | -102.01786 | 36859 ft | 554 kts | 105° |
| 2026-05-06 04:13 | 34.39862 | -101.92586 | 36878 ft | 554 kts | 104° |
| 2026-05-06 04:13 | 34.38847 | -101.83329 | 36899 ft | 554 kts | 104° |
| 2026-05-06 04:14 | 34.37826 | -101.74080 | 36904 ft | 554 kts | 104° |
| 2026-05-06 04:14 | 34.36797 | -101.64828 | 36911 ft | 554 kts | 104° |
| 2026-05-06 04:15 | 34.35762 | -101.55587 | 36905 ft | 553 kts | 104° |
| 2026-05-06 04:15 | 34.34729 | -101.46422 | 36897 ft | 553 kts | 104° |
| 2026-05-06 04:16 | 34.33683 | -101.37208 | 36880 ft | 552 kts | 104° |
| 2026-05-06 04:16 | 34.32632 | -101.28009 | 36871 ft | 552 kts | 104° |
| 2026-05-06 04:17 | 34.31573 | -101.18810 | 36778 ft | 554 kts | 104° |
| 2026-05-06 04:17 | 34.31034 | -101.14163 | 36267 ft | 559 kts | 104° |
| 2026-05-06 04:17 | 34.30496 | -101.09513 | 35783 ft | 557 kts | 104° |
| 2026-05-06 04:18 | 34.29959 | -101.04878 | 35296 ft | 554 kts | 104° |
| 2026-05-06 04:18 | 34.29425 | -101.00293 | 35009 ft | 549 kts | 104° |
| 2026-05-06 04:18 | 34.28888 | -100.95712 | 34618 ft | 551 kts | 104° |
| 2026-05-06 04:18 | 34.28342 | -100.91112 | 34260 ft | 556 kts | 104° |
| 2026-05-06 04:19 | 34.27790 | -100.86470 | 33901 ft | 559 kts | 104° |
| 2026-05-06 04:19 | 34.27237 | -100.81821 | 33489 ft | 558 kts | 104° |
| 2026-05-06 04:19 | 34.26693 | -100.77240 | 33078 ft | 558 kts | 104° |
| 2026-05-06 04:19 | 34.26141 | -100.72599 | 32683 ft | 557 kts | 104° |
| 2026-05-06 04:20 | 34.25588 | -100.67964 | 32282 ft | 556 kts | 103° |
| 2026-05-06 04:20 | 34.25036 | -100.63353 | 31899 ft | 554 kts | 103° |
| 2026-05-06 04:20 | 34.24482 | -100.58746 | 31515 ft | 553 kts | 103° |
| 2026-05-06 04:20 | 34.23928 | -100.54158 | 31106 ft | 552 kts | 103° |
| 2026-05-06 04:21 | 34.23371 | -100.49572 | 30650 ft | 552 kts | 103° |
| 2026-05-06 04:21 | 34.22813 | -100.44987 | 30196 ft | 551 kts | 103° |
| 2026-05-06 04:21 | 34.22255 | -100.40412 | 29695 ft | 550 kts | 103° |
| 2026-05-06 04:21 | 34.21697 | -100.35847 | 29163 ft | 549 kts | 102° |
| 2026-05-06 04:22 | 34.21139 | -100.31294 | 28630 ft | 547 kts | 102° |
| 2026-05-06 04:22 | 34.20581 | -100.26761 | 28111 ft | 545 kts | 102° |
| 2026-05-06 04:22 | 34.19963 | -100.22248 | 27595 ft | 542 kts | 105° |
| 2026-05-06 04:23 | 34.18393 | -100.13362 | 26591 ft | 542 kts | 107° |
| 2026-05-06 04:23 | 34.17542 | -100.08907 | 26103 ft | 545 kts | 107° |
| 2026-05-06 04:23 | 34.16693 | -100.04440 | 25619 ft | 545 kts | 107° |
| 2026-05-06 04:23 | 34.15865 | -99.99991 | 25128 ft | 540 kts | 107° |
| 2026-05-06 04:24 | 34.15059 | -99.95578 | 24667 ft | 536 kts | 106° |
| 2026-05-06 04:24 | 34.14267 | -99.91195 | 24224 ft | 533 kts | 106° |
| 2026-05-06 04:24 | 34.13481 | -99.86832 | 23968 ft | 531 kts | 106° |
| 2026-05-06 04:24 | 34.12699 | -99.82496 | 23906 ft | 522 kts | 106° |
| 2026-05-06 04:25 | 34.11955 | -99.78358 | 23884 ft | 502 kts | 106° |
| 2026-05-06 04:25 | 34.11224 | -99.74310 | 23865 ft | 484 kts | 106° |
| 2026-05-06 04:25 | 34.10515 | -99.70404 | 23878 ft | 472 kts | 107° |
| 2026-05-06 04:25 | 34.09793 | -99.66477 | 23902 ft | 485 kts | 107° |
| 2026-05-06 04:26 | 34.09051 | -99.62471 | 23894 ft | 487 kts | 106° |
| 2026-05-06 04:26 | 34.08331 | -99.58550 | 23869 ft | 471 kts | 107° |
| 2026-05-06 04:26 | 34.07640 | -99.54764 | 23867 ft | 455 kts | 107° |
| 2026-05-06 04:26 | 34.06968 | -99.51095 | 23867 ft | 441 kts | 107° |
| 2026-05-06 04:27 | 34.06308 | -99.47518 | 23884 ft | 437 kts | 107° |
| 2026-05-06 04:27 | 34.05633 | -99.43895 | 23899 ft | 449 kts | 107° |
| 2026-05-06 04:27 | 34.04940 | -99.40185 | 23899 ft | 455 kts | 107° |
| 2026-05-06 04:27 | 34.04259 | -99.36507 | 23879 ft | 452 kts | 107° |
| 2026-05-06 04:28 | 34.03577 | -99.32821 | 23874 ft | 449 kts | 107° |
| 2026-05-06 04:28 | 34.02896 | -99.29153 | 23874 ft | 447 kts | 107° |
| 2026-05-06 04:28 | 34.02211 | -99.25490 | 23873 ft | 446 kts | 108° |
| 2026-05-06 04:28 | 34.01345 | -99.21915 | 23878 ft | 442 kts | 114° |
| 2026-05-06 04:29 | 34.00287 | -99.18447 | 23884 ft | 441 kts | 116° |
| 2026-05-06 04:29 | 33.99151 | -99.15012 | 23883 ft | 441 kts | 117° |
| 2026-05-06 04:29 | 33.98001 | -99.11576 | 23883 ft | 443 kts | 117° |
| 2026-05-06 04:29 | 33.96876 | -99.08169 | 23885 ft | 444 kts | 116° |
| 2026-05-06 04:30 | 33.95751 | -99.04695 | 23881 ft | 446 kts | 116° |
| 2026-05-06 04:30 | 33.94637 | -99.01198 | 23886 ft | 447 kts | 116° |
| 2026-05-06 04:30 | 33.93531 | -98.97694 | 23881 ft | 448 kts | 115° |
| 2026-05-06 04:30 | 33.92428 | -98.94187 | 23878 ft | 448 kts | 115° |
| 2026-05-06 04:31 | 33.91328 | -98.90683 | 23886 ft | 447 kts | 115° |
| 2026-05-06 04:31 | 33.90225 | -98.87177 | 23895 ft | 447 kts | 115° |
| 2026-05-06 04:31 | 33.89125 | -98.83685 | 23900 ft | 446 kts | 115° |
| 2026-05-06 04:31 | 33.88023 | -98.80192 | 23912 ft | 445 kts | 115° |
| 2026-05-06 04:32 | 33.86922 | -98.76713 | 23918 ft | 445 kts | 115° |
| 2026-05-06 04:32 | 33.85822 | -98.73237 | 23925 ft | 444 kts | 115° |
| 2026-05-06 04:32 | 33.84722 | -98.69768 | 23935 ft | 443 kts | 115° |
| 2026-05-06 04:32 | 33.83622 | -98.66304 | 23946 ft | 443 kts | 115° |
| 2026-05-06 04:33 | 33.82523 | -98.62845 | 23952 ft | 443 kts | 115° |
| 2026-05-06 04:33 | 33.81423 | -98.59386 | 23961 ft | 443 kts | 115° |
| 2026-05-06 04:33 | 33.80323 | -98.55933 | 23966 ft | 443 kts | 115° |
| 2026-05-06 04:33 | 33.79219 | -98.52467 | 23962 ft | 443 kts | 115° |
| 2026-05-06 04:34 | 33.78114 | -98.49006 | 23959 ft | 444 kts | 115° |
| 2026-05-06 04:34 | 33.77013 | -98.45558 | 23533 ft | 449 kts | 115° |
| 2026-05-06 04:34 | 33.75898 | -98.42058 | 23064 ft | 448 kts | 115° |
| 2026-05-06 04:34 | 33.74790 | -98.38574 | 22592 ft | 445 kts | 115° |
| 2026-05-06 04:35 | 33.73691 | -98.35120 | 22135 ft | 441 kts | 115° |
| 2026-05-06 04:35 | 33.72602 | -98.31700 | 21698 ft | 436 kts | 115° |
| 2026-05-06 04:35 | 33.71520 | -98.28308 | 21269 ft | 432 kts | 115° |
| 2026-05-06 04:35 | 33.70447 | -98.24949 | 20846 ft | 429 kts | 115° |
| 2026-05-06 04:36 | 33.69383 | -98.21626 | 20551 ft | 421 kts | 115° |
| 2026-05-06 04:36 | 33.68373 | -98.18456 | 20822 ft | 391 kts | 115° |
| 2026-05-06 04:36 | 33.67425 | -98.15481 | 20714 ft | 371 kts | 115° |
| 2026-05-06 04:36 | 33.66526 | -98.12670 | 20615 ft | 351 kts | 115° |
| 2026-05-06 04:37 | 33.65671 | -98.10003 | 20503 ft | 334 kts | 116° |
| 2026-05-06 04:37 | 33.64855 | -98.07466 | 20391 ft | 317 kts | 116° |
| 2026-05-06 04:37 | 33.64077 | -98.05048 | 20281 ft | 302 kts | 116° |
| 2026-05-06 04:37 | 33.63337 | -98.02751 | 20182 ft | 288 kts | 116° |
| 2026-05-06 04:38 | 33.62640 | -98.00592 | 20033 ft | 276 kts | 117° |
| 2026-05-06 04:38 | 33.61949 | -97.98458 | 19636 ft | 276 kts | 117° |
| 2026-05-06 04:38 | 33.61226 | -97.96249 | 18961 ft | 292 kts | 116° |
| 2026-05-06 04:38 | 33.60450 | -97.93883 | 17987 ft | 318 kts | 116° |
| 2026-05-06 04:39 | 33.59601 | -97.91292 | 16822 ft | 348 kts | 115° |
| 2026-05-06 04:39 | 33.58696 | -97.88509 | 16186 ft | 361 kts | 115° |
| 2026-05-06 04:39 | 33.57789 | -97.85695 | 15855 ft | 365 kts | 114° |
| 2026-05-06 04:39 | 33.56866 | -97.82836 | 15498 ft | 369 kts | 114° |
| 2026-05-06 04:40 | 33.55933 | -97.79948 | 15143 ft | 372 kts | 114° |
| 2026-05-06 04:40 | 33.54995 | -97.77053 | 14824 ft | 372 kts | 114° |
| 2026-05-06 04:40 | 33.54076 | -97.74218 | 14520 ft | 372 kts | 114° |
| 2026-05-06 04:40 | 33.53117 | -97.71268 | 14174 ft | 372 kts | 114° |
| 2026-05-06 04:41 | 33.52181 | -97.68391 | 13818 ft | 369 kts | 114° |
| 2026-05-06 04:41 | 33.51264 | -97.65573 | 13447 ft | 366 kts | 114° |
| 2026-05-06 04:41 | 33.50341 | -97.62743 | 13066 ft | 363 kts | 114° |
| 2026-05-06 04:41 | 33.49424 | -97.59933 | 12704 ft | 360 kts | 114° |
| 2026-05-06 04:42 | 33.48527 | -97.57154 | 12350 ft | 356 kts | 118° |
| 2026-05-06 04:42 | 33.47091 | -97.54847 | 11990 ft | 339 kts | 147° |
| 2026-05-06 04:42 | 33.45062 | -97.53659 | 11730 ft | 315 kts | 176° |
| 2026-05-06 04:42 | 33.42949 | -97.53604 | 11640 ft | 301 kts | 185° |
| 2026-05-06 04:43 | 33.40886 | -97.52948 | 11430 ft | 322 kts | 156° |
| 2026-05-06 04:43 | 33.39211 | -97.51063 | 11202 ft | 341 kts | 126° |
| 2026-05-06 04:43 | 33.38405 | -97.48378 | 11096 ft | 350 kts | 97° |
| 2026-05-06 04:43 | 33.38661 | -97.45494 | 11054 ft | 349 kts | 69° |
| 2026-05-06 04:44 | 33.39895 | -97.43097 | 11046 ft | 341 kts | 42° |
| 2026-05-06 04:44 | 33.41376 | -97.40842 | 11029 ft | 348 kts | 68° |
| 2026-05-06 04:44 | 33.41506 | -97.37996 | 11059 ft | 346 kts | 106° |
| 2026-05-06 04:44 | 33.40814 | -97.35240 | 11043 ft | 348 kts | 108° |
| 2026-05-06 04:45 | 33.40295 | -97.32437 | 11031 ft | 351 kts | 100° |
| 2026-05-06 04:45 | 33.40057 | -97.29526 | 11024 ft | 352 kts | 93° |
| 2026-05-06 04:45 | 33.40041 | -97.26600 | 10953 ft | 352 kts | 89° |
| 2026-05-06 04:45 | 33.40167 | -97.23670 | 10694 ft | 352 kts | 86° |
| 2026-05-06 04:46 | 33.40371 | -97.20756 | 10461 ft | 350 kts | 85° |
| 2026-05-06 04:46 | 33.40608 | -97.17932 | 10613 ft | 326 kts | 84° |
| 2026-05-06 04:46 | 33.40763 | -97.16170 | 10565 ft | 317 kts | 84° |
| 2026-05-06 04:46 | 33.40998 | -97.13550 | 10300 ft | 316 kts | 84° |
| 2026-05-06 04:47 | 33.41234 | -97.10929 | 10078 ft | 317 kts | 84° |
| 2026-05-06 04:47 | 33.41470 | -97.08285 | 9860 ft | 322 kts | 84° |
| 2026-05-06 04:47 | 33.41708 | -97.05616 | 9613 ft | 322 kts | 84° |
| 2026-05-06 04:47 | 33.41943 | -97.02962 | 9356 ft | 318 kts | 84° |
| 2026-05-06 04:48 | 33.42175 | -97.00344 | 9103 ft | 314 kts | 84° |
| 2026-05-06 04:48 | 33.42402 | -96.97758 | 8853 ft | 311 kts | 84° |
| 2026-05-06 04:48 | 33.42628 | -96.95192 | 8604 ft | 307 kts | 85° |
| 2026-05-06 04:48 | 33.42789 | -96.92661 | 8345 ft | 303 kts | 96° |
| 2026-05-06 04:49 | 33.42277 | -96.90269 | 8085 ft | 294 kts | 120° |
| 2026-05-06 04:49 | 33.41319 | -96.88175 | 7869 ft | 289 kts | 124° |
| 2026-05-06 04:49 | 33.40309 | -96.86068 | 7617 ft | 287 kts | 124° |
| 2026-05-06 04:49 | 33.39322 | -96.83995 | 7370 ft | 286 kts | 124° |
| 2026-05-06 04:50 | 33.38240 | -96.82070 | 7123 ft | 281 kts | 142° |
| 2026-05-06 04:50 | 33.36661 | -96.80732 | 6924 ft | 278 kts | 154° |
| 2026-05-06 04:50 | 33.34991 | -96.79577 | 6683 ft | 276 kts | 156° |
| 2026-05-06 04:50 | 33.33323 | -96.78477 | 6459 ft | 272 kts | 155° |
| 2026-05-06 04:51 | 33.31673 | -96.77392 | 6230 ft | 269 kts | 156° |
| 2026-05-06 04:51 | 33.30031 | -96.76333 | 5986 ft | 267 kts | 157° |
| 2026-05-06 04:51 | 33.28394 | -96.75302 | 5722 ft | 264 kts | 156° |
| 2026-05-06 04:51 | 33.26789 | -96.74263 | 5481 ft | 261 kts | 157° |
| 2026-05-06 04:52 | 33.25165 | -96.73340 | 5220 ft | 254 kts | 169° |
| 2026-05-06 04:52 | 33.23452 | -96.72968 | 5004 ft | 248 kts | 178° |
| 2026-05-06 04:52 | 33.21742 | -96.72765 | 4757 ft | 246 kts | 179° |
| 2026-05-06 04:52 | 33.20051 | -96.72583 | 4522 ft | 243 kts | 179° |
| 2026-05-06 04:53 | 33.18395 | -96.72397 | 4276 ft | 241 kts | 179° |
| 2026-05-06 04:53 | 33.16733 | -96.72198 | 4043 ft | 239 kts | 179° |
| 2026-05-06 04:53 | 33.15081 | -96.71991 | 3798 ft | 238 kts | 179° |
| 2026-05-06 04:53 | 33.13441 | -96.71779 | 3553 ft | 235 kts | 178° |
| 2026-05-06 04:54 | 33.11825 | -96.71565 | 3309 ft | 232 kts | 178° |
| 2026-05-06 04:54 | 33.10231 | -96.71350 | 3066 ft | 228 kts | 178° |
| 2026-05-06 04:54 | 33.08662 | -96.71136 | 2815 ft | 226 kts | 178° |
| 2026-05-06 04:54 | 33.07113 | -96.70924 | 2657 ft | 223 kts | 177° |
| 2026-05-06 04:55 | 33.05556 | -96.70711 | 2578 ft | 227 kts | 178° |
| 2026-05-06 04:55 | 33.03990 | -96.70495 | 2541 ft | 226 kts | 177° |
| 2026-05-06 04:55 | 33.02441 | -96.70279 | 2524 ft | 222 kts | 177° |
| 2026-05-06 04:55 | 33.00923 | -96.70067 | 2527 ft | 218 kts | 176° |
| 2026-05-06 04:56 | 32.99438 | -96.69860 | 2525 ft | 216 kts | 176° |
| 2026-05-06 04:56 | 32.97944 | -96.69652 | 2535 ft | 216 kts | 177° |
| 2026-05-06 04:56 | 32.96448 | -96.69444 | 2535 ft | 216 kts | 177° |
| 2026-05-06 04:56 | 32.94944 | -96.69234 | 2528 ft | 218 kts | 178° |
| 2026-05-06 04:57 | 32.93439 | -96.69025 | 2528 ft | 217 kts | 177° |
| 2026-05-06 04:57 | 32.91939 | -96.68815 | 2524 ft | 216 kts | 177° |
| 2026-05-06 04:57 | 32.90426 | -96.68604 | 2542 ft | 222 kts | 177° |
| 2026-05-06 04:57 | 32.88887 | -96.68390 | 2503 ft | 222 kts | 177° |
| 2026-05-06 04:58 | 32.87360 | -96.68176 | 2505 ft | 220 kts | 177° |
| 2026-05-06 04:58 | 32.85841 | -96.67964 | 2510 ft | 219 kts | 176° |
| 2026-05-06 04:58 | 32.84321 | -96.67752 | 2503 ft | 220 kts | 178° |
| 2026-05-06 04:58 | 32.82806 | -96.67540 | 2500 ft | 219 kts | 178° |
| 2026-05-06 04:59 | 32.81291 | -96.67329 | 2497 ft | 218 kts | 178° |
| 2026-05-06 04:59 | 32.79809 | -96.67122 | 2493 ft | 215 kts | 177° |
| 2026-05-06 04:59 | 32.78349 | -96.66918 | 2495 ft | 208 kts | 177° |
| 2026-05-06 04:59 | 32.76945 | -96.66721 | 2487 ft | 198 kts | 178° |
| 2026-05-06 05:00 | 32.75625 | -96.66787 | 2497 ft | 185 kts | 197° |
| 2026-05-06 05:00 | 32.74508 | -96.67474 | 2495 ft | 180 kts | 217° |
| 2026-05-06 05:00 | 32.73768 | -96.68647 | 2501 ft | 179 kts | 239° |
| 2026-05-06 05:00 | 32.73522 | -96.70163 | 2446 ft | 198 kts | 263° |
| 2026-05-06 05:01 | 32.73902 | -96.71783 | 2397 ft | 219 kts | 290° |
| 2026-05-06 05:01 | 32.74904 | -96.73186 | 2362 ft | 225 kts | 307° |
| 2026-05-06 05:01 | 32.76047 | -96.74446 | 2315 ft | 222 kts | 306° |
| 2026-05-06 05:01 | 32.77141 | -96.75691 | 2232 ft | 212 kts | 305° |
| 2026-05-06 05:02 | 32.78178 | -96.76898 | 2142 ft | 207 kts | 304° |
| 2026-05-06 05:02 | 32.79202 | -96.78092 | 2136 ft | 205 kts | 304° |
| 2026-05-06 05:02 | 32.80230 | -96.79289 | 1909 ft | 214 kts | 306° |
| 2026-05-06 05:02 | 32.81325 | -96.80549 | 1436 ft | 217 kts | 310° |
| 2026-05-06 05:03 | 32.82335 | -96.81806 | 1145 ft | 200 kts | 313° |
| 2026-05-06 05:03 | 32.83293 | -96.82856 | 1000 ft | 180 kts | 322° |
| 2026-05-06 05:03 | 32.84163 | -96.83876 | 659 ft | 169 kts | 316° |
| 2026-05-06 05:03 | 32.84936 | -96.84776 | 536 ft | 140 kts | 318° |
| 2026-05-06 05:04 | 32.85511 | -96.85444 | 811 ft | 101 kts | 321° |
| 2026-05-06 05:04 | 32.86021 | -96.85999 | 1233 ft | 107 kts | 315° |
| 2026-05-06 05:04 | 32.86766 | -96.86642 | 1183 ft | 175 kts | 334° |
| 2026-05-06 05:04 | 32.88119 | -96.86966 | 1354 ft | 223 kts | 358° |
| 2026-05-06 05:05 | 32.89655 | -96.86408 | 1769 ft | 242 kts | 39° |
| 2026-05-06 05:05 | 32.90823 | -96.84866 | 1891 ft | 266 kts | 68° |
| 2026-05-06 05:05 | 32.91442 | -96.82748 | 1068 ft | 284 kts | 79° |
| 2026-05-06 05:05 | 32.91474 | -96.80565 | 1198 ft | 261 kts | 94° |
| 2026-05-06 05:06 | 32.91071 | -96.78552 | 1354 ft | 248 kts | 115° |
| 2026-05-06 05:07 | 32.90557 | -96.77214 | 1239 ft | 251 kts | 116° |
| 2026-05-06 05:07 | 32.90157 | -96.75197 | 952 ft | 249 kts | 80° |